createdAt,value
2023-04-02T00:00:18.341Z,0.00
2023-04-02T00:01:18.664Z,0.00
2023-04-02T00:02:19.019Z,0.00
2023-04-02T00:03:19.445Z,0.00
2023-04-02T00:04:19.573Z,0.00
2023-04-02T00:05:19.876Z,0.00
2023-04-02T00:06:20.283Z,0.00
2023-04-02T00:07:20.400Z,1.00
2023-04-02T00:08:20.802Z,0.00
2023-04-02T00:09:21.145Z,0.00
2023-04-02T00:10:21.447Z,0.00
2023-04-02T00:11:21.626Z,0.00
2023-04-02T00:12:22.005Z,0.00
2023-04-02T00:13:22.261Z,0.00
2023-04-02T00:14:22.517Z,1.00
2023-04-02T00:15:22.812Z,0.00
2023-04-02T00:16:23.260Z,0.00
2023-04-02T00:17:23.406Z,0.00
2023-04-02T00:18:23.681Z,0.00
2023-04-02T00:19:23.853Z,0.00
2023-04-02T00:20:24.149Z,0.00
2023-04-02T00:21:24.455Z,0.00
2023-04-02T00:22:24.867Z,0.00
2023-04-02T00:23:25.056Z,0.00
2023-04-02T00:24:25.300Z,0.00
2023-04-02T00:25:25.560Z,0.00
2023-04-02T00:26:25.873Z,0.00
2023-04-02T00:27:26.135Z,0.00
2023-04-02T00:28:26.385Z,0.00
2023-04-02T00:29:26.708Z,0.00
2023-04-02T00:30:27.021Z,0.00
2023-04-02T00:31:27.438Z,0.00
2023-04-02T00:32:27.690Z,0.00
2023-04-02T00:33:27.836Z,0.00
2023-04-02T00:34:28.213Z,0.00
2023-04-02T00:35:28.537Z,0.00
2023-04-02T00:36:28.788Z,0.00
2023-04-02T00:37:29.126Z,0.00
2023-04-02T00:38:29.396Z,0.00
2023-04-02T00:39:29.717Z,0.00
2023-04-02T00:40:29.829Z,1.00
2023-04-02T00:41:30.064Z,1.00
2023-04-02T00:42:30.491Z,0.00
2023-04-02T00:43:30.716Z,0.00
2023-04-02T00:44:31.066Z,0.00
2023-04-02T00:45:31.304Z,0.00
2023-04-02T00:46:31.693Z,0.00
2023-04-02T00:47:31.991Z,0.00
2023-04-02T00:48:32.275Z,0.00
2023-04-02T00:49:32.552Z,0.00
2023-04-02T00:50:33.739Z,0.00
2023-04-02T00:51:33.140Z,0.00
2023-04-02T00:52:33.443Z,0.00
2023-04-02T00:53:33.767Z,0.00
2023-04-02T00:54:34.080Z,0.00
2023-04-02T00:55:34.531Z,0.00
2023-04-02T00:56:34.649Z,0.00
2023-04-02T00:57:35.057Z,0.00
2023-04-02T00:58:35.287Z,0.00
2023-04-02T00:59:35.625Z,0.00
2023-04-02T01:00:35.866Z,0.00
2023-04-02T01:01:36.119Z,0.00
2023-04-02T01:02:36.396Z,0.00
2023-04-02T01:03:37.110Z,0.00
2023-04-02T01:04:37.033Z,0.00
2023-04-02T01:05:37.568Z,0.00
2023-04-02T01:06:37.705Z,1.00
2023-04-02T01:07:37.815Z,1.00
2023-04-02T01:08:38.181Z,0.00
2023-04-02T01:09:38.475Z,0.00
2023-04-02T01:10:38.770Z,0.00
2023-04-02T01:11:39.005Z,0.00
2023-04-02T01:12:39.322Z,1.00
2023-04-02T01:13:39.615Z,0.00
2023-04-02T01:14:39.871Z,0.00
2023-04-02T01:15:40.135Z,1.00
2023-04-02T01:16:40.550Z,0.00
2023-04-02T01:17:40.782Z,1.00
2023-04-02T01:18:41.187Z,0.00
2023-04-02T01:19:41.399Z,1.00
2023-04-02T01:20:41.686Z,1.00
2023-04-02T01:21:42.227Z,0.00
2023-04-02T01:22:42.540Z,0.00
2023-04-02T01:23:42.715Z,0.00
2023-04-02T01:24:42.961Z,0.00
2023-04-02T01:25:43.359Z,0.00
2023-04-02T01:26:43.480Z,1.00
2023-04-02T01:27:43.895Z,1.00
2023-04-02T01:28:44.155Z,0.00
2023-04-02T01:29:44.455Z,1.00
2023-04-02T01:30:44.652Z,0.00
2023-04-02T01:31:45.268Z,0.00
2023-04-02T01:32:45.265Z,0.00
2023-04-02T01:33:45.549Z,0.00
2023-04-02T01:34:45.792Z,1.00
2023-04-02T01:35:46.126Z,0.00
2023-04-02T01:36:46.461Z,0.00
2023-04-02T01:37:46.648Z,1.00
2023-04-02T01:38:47.035Z,0.00
2023-04-02T01:39:47.508Z,0.00
2023-04-02T01:40:47.680Z,0.00
2023-04-02T01:41:48.016Z,0.00
2023-04-02T01:42:48.282Z,1.00
2023-04-02T01:43:48.553Z,0.00
2023-04-02T01:44:49.769Z,0.00
2023-04-02T01:45:49.055Z,0.00
2023-04-02T01:46:49.431Z,0.00
2023-04-02T01:47:49.694Z,0.00
2023-04-02T01:48:50.006Z,0.00
2023-04-02T01:49:50.270Z,0.00
2023-04-02T01:50:50.603Z,0.00
2023-04-02T01:51:50.871Z,0.00
2023-04-02T01:52:51.175Z,0.00
2023-04-02T01:53:51.458Z,0.00
2023-04-02T01:54:51.774Z,0.00
2023-04-02T01:55:52.001Z,0.00
2023-04-02T01:56:52.328Z,0.00
2023-04-02T01:57:52.590Z,0.00
2023-04-02T01:58:52.875Z,0.00
2023-04-02T01:59:53.140Z,0.00
2023-04-02T02:00:53.520Z,0.00
2023-04-02T02:01:53.808Z,0.00
2023-04-02T02:02:54.207Z,0.00
2023-04-02T02:03:54.339Z,0.00
2023-04-02T02:04:54.605Z,0.00
2023-04-02T02:05:54.891Z,0.00
2023-04-02T02:06:55.169Z,0.00
2023-04-02T02:07:55.412Z,0.00
2023-04-02T02:08:55.777Z,1.00
2023-04-02T02:09:55.992Z,0.00
2023-04-02T02:10:56.280Z,0.00
2023-04-02T02:11:56.589Z,0.00
2023-04-02T02:12:56.885Z,0.00
2023-04-02T02:13:57.139Z,0.00
2023-04-02T02:14:57.373Z,0.00
2023-04-02T02:15:57.701Z,0.00
2023-04-02T02:16:57.961Z,0.00
2023-04-02T02:17:58.300Z,0.00
2023-04-02T02:18:58.606Z,0.00
2023-04-02T02:19:58.888Z,0.00
2023-04-02T02:20:59.158Z,0.00
2023-04-02T02:21:59.361Z,0.00
2023-04-02T02:22:59.670Z,0.00
2023-04-02T02:23:59.842Z,1.00
2023-04-02T02:25:00.183Z,0.00
2023-04-02T02:26:00.512Z,0.00
2023-04-02T02:27:00.724Z,0.00
2023-04-02T02:28:01.037Z,0.00
2023-04-02T02:29:01.275Z,0.00
2023-04-02T02:30:01.569Z,0.00
2023-04-02T02:31:01.885Z,0.00
2023-04-02T02:32:02.173Z,0.00
2023-04-02T02:33:02.466Z,0.00
2023-04-02T02:34:02.688Z,0.00
2023-04-02T02:35:02.971Z,0.00
2023-04-02T02:36:03.343Z,0.00
2023-04-02T02:37:03.571Z,0.00
2023-04-02T02:38:03.840Z,0.00
2023-04-02T02:39:04.155Z,0.00
2023-04-02T02:40:04.453Z,0.00
2023-04-02T02:41:04.852Z,0.00
2023-04-02T02:42:05.130Z,0.00
2023-04-02T02:43:05.384Z,0.00
2023-04-02T02:44:05.668Z,0.00
2023-04-02T02:45:05.988Z,0.00
2023-04-02T02:46:06.281Z,0.00
2023-04-02T02:47:06.528Z,0.00
2023-04-02T02:48:06.878Z,1.00
2023-04-02T02:49:07.313Z,0.00
2023-04-02T02:50:07.389Z,0.00
2023-04-02T02:51:07.694Z,0.00
2023-04-02T02:52:07.997Z,0.00
2023-04-02T02:53:08.293Z,0.00
2023-04-02T02:54:08.584Z,0.00
2023-04-02T02:55:08.845Z,0.00
2023-04-02T02:56:09.092Z,0.00
2023-04-02T02:57:09.537Z,0.00
2023-04-02T02:58:09.672Z,0.00
2023-04-02T02:59:09.967Z,0.00
2023-04-02T03:00:10.315Z,0.00
2023-04-02T03:01:10.589Z,1.00
2023-04-02T03:02:10.914Z,0.00
2023-04-02T03:03:11.230Z,0.00
2023-04-02T03:04:11.426Z,0.00
2023-04-02T03:05:11.662Z,0.00
2023-04-02T03:06:11.979Z,0.00
2023-04-02T03:07:12.217Z,0.00
2023-04-02T03:08:12.654Z,0.00
2023-04-02T03:09:12.829Z,0.00
2023-04-02T03:10:13.067Z,0.00
2023-04-02T03:11:13.383Z,0.00
2023-04-02T03:12:13.663Z,0.00
2023-04-02T03:13:13.927Z,0.00
2023-04-02T03:14:14.201Z,0.00
2023-04-02T03:15:14.582Z,0.00
2023-04-02T03:16:14.841Z,0.00
2023-04-02T03:17:15.084Z,0.00
2023-04-02T03:18:15.397Z,0.00
2023-04-02T03:19:16.099Z,0.00
2023-04-02T03:20:15.937Z,0.00
2023-04-02T03:21:16.166Z,1.00
2023-04-02T03:22:16.575Z,0.00
2023-04-02T03:23:18.483Z,0.00
2023-04-02T03:24:17.119Z,0.00
2023-04-02T03:25:17.448Z,0.00
2023-04-02T03:26:17.767Z,0.00
2023-04-02T03:27:18.082Z,0.00
2023-04-02T03:28:18.390Z,0.00
2023-04-02T03:29:18.640Z,0.00
2023-04-02T03:30:18.943Z,0.00
2023-04-02T03:31:19.302Z,0.00
2023-04-02T03:32:19.536Z,0.00
2023-04-02T03:33:19.837Z,0.00
2023-04-02T03:34:20.110Z,0.00
2023-04-02T03:35:20.452Z,0.00
2023-04-02T03:36:20.732Z,0.00
2023-04-02T03:37:21.025Z,0.00
2023-04-02T03:38:21.240Z,0.00
2023-04-02T03:39:21.573Z,0.00
2023-04-02T03:40:21.801Z,0.00
2023-04-02T03:41:22.225Z,0.00
2023-04-02T03:42:22.329Z,0.00
2023-04-02T03:43:22.634Z,0.00
2023-04-02T03:44:22.932Z,0.00
2023-04-02T03:45:23.232Z,0.00
2023-04-02T03:46:23.572Z,0.00
2023-04-02T03:47:23.849Z,0.00
2023-04-02T03:48:24.042Z,0.00
2023-04-02T03:49:24.381Z,0.00
2023-04-02T03:50:24.600Z,0.00
2023-04-02T03:51:24.892Z,0.00
2023-04-02T03:52:25.206Z,0.00
2023-04-02T03:53:25.524Z,0.00
2023-04-02T03:54:25.761Z,0.00
2023-04-02T03:55:26.094Z,0.00
2023-04-02T03:56:26.415Z,0.00
2023-04-02T03:57:26.742Z,0.00
2023-04-02T03:58:26.996Z,0.00
2023-04-02T03:59:27.270Z,0.00
2023-04-02T04:00:27.621Z,0.00
2023-04-02T04:01:27.921Z,0.00
2023-04-02T04:02:28.276Z,0.00
2023-04-02T04:03:28.412Z,0.00
2023-04-02T04:04:28.943Z,0.00
2023-04-02T04:05:29.076Z,0.00
2023-04-02T04:06:29.361Z,0.00
2023-04-02T04:07:29.547Z,1.00
2023-04-02T04:08:29.854Z,0.00
2023-04-02T04:09:38.221Z,0.00
2023-04-02T04:10:30.381Z,0.00
2023-04-02T04:11:30.713Z,0.00
2023-04-02T04:12:31.043Z,0.00
2023-04-02T04:13:31.320Z,0.00
2023-04-02T04:14:31.561Z,0.00
2023-04-02T04:15:31.863Z,0.00
2023-04-02T04:16:32.096Z,0.00
2023-04-02T04:17:32.383Z,0.00
2023-04-02T04:18:32.645Z,1.00
2023-04-02T04:19:32.958Z,0.00
2023-04-02T04:20:33.197Z,0.00
2023-04-02T04:21:33.491Z,0.00
2023-04-02T04:22:33.926Z,0.00
2023-04-02T04:23:34.080Z,0.00
2023-04-02T04:24:34.395Z,0.00
2023-04-02T04:25:34.936Z,0.00
2023-04-02T04:26:35.081Z,0.00
2023-04-02T04:27:35.364Z,0.00
2023-04-02T04:28:35.670Z,0.00
2023-04-02T04:29:35.939Z,0.00
2023-04-02T04:30:36.268Z,0.00
2023-04-02T04:31:37.484Z,0.00
2023-04-02T04:32:36.902Z,0.00
2023-04-02T04:33:37.110Z,0.00
2023-04-02T04:34:37.489Z,0.00
2023-04-02T04:35:38.309Z,0.00
2023-04-02T04:36:38.931Z,0.00
2023-04-02T04:37:38.312Z,0.00
2023-04-02T04:38:38.651Z,0.00
2023-04-02T04:39:38.892Z,1.00
2023-04-02T04:40:39.194Z,1.00
2023-04-02T04:41:39.561Z,0.00
2023-04-02T04:42:40.731Z,0.00
2023-04-02T04:43:40.133Z,0.00
2023-04-02T04:44:40.472Z,0.00
2023-04-02T04:45:40.744Z,2.00
2023-04-02T04:46:40.943Z,1.00
2023-04-02T04:47:41.281Z,1.00
2023-04-02T04:48:42.438Z,2.00
2023-04-02T04:49:41.785Z,1.00
2023-04-02T04:50:42.110Z,6.00
2023-04-02T04:51:42.432Z,5.00
2023-04-02T04:52:42.687Z,6.00
2023-04-02T04:53:43.108Z,8.00
2023-04-02T04:54:43.217Z,8.00
2023-04-02T04:55:43.536Z,7.00
2023-04-02T04:56:43.883Z,8.00
2023-04-02T04:57:44.194Z,7.00
2023-04-02T04:58:44.492Z,3.00
2023-04-02T04:59:44.837Z,11.00
2023-04-02T05:00:45.137Z,15.00
2023-04-02T05:01:45.475Z,16.00
2023-04-02T05:02:45.895Z,17.00
2023-04-02T05:03:46.069Z,20.00
2023-04-02T05:04:46.469Z,21.00
2023-04-02T05:05:46.590Z,27.00
2023-04-02T05:06:46.918Z,29.00
2023-04-02T05:07:47.324Z,31.00
2023-04-02T05:08:47.559Z,32.00
2023-04-02T05:09:47.725Z,37.00
2023-04-02T05:10:48.057Z,42.00
2023-04-02T05:11:48.374Z,42.00
2023-04-02T05:12:48.724Z,41.00
2023-04-02T05:13:49.043Z,42.00
2023-04-02T05:14:49.356Z,46.00
2023-04-02T05:15:49.768Z,44.00
2023-04-02T05:16:49.942Z,48.00
2023-04-02T05:17:50.350Z,52.00
2023-04-02T05:18:50.574Z,54.00
2023-04-02T05:19:50.736Z,53.00
2023-04-02T05:20:51.106Z,55.00
2023-04-02T05:21:51.309Z,52.00
2023-04-02T05:22:51.587Z,51.00
2023-04-02T05:23:51.892Z,51.00
2023-04-02T05:24:52.187Z,56.00
2023-04-02T05:25:52.494Z,58.00
2023-04-02T05:26:52.808Z,58.00
2023-04-02T05:27:53.139Z,60.00
2023-04-02T05:28:53.432Z,62.00
2023-04-02T05:29:53.741Z,63.00
2023-04-02T05:30:54.094Z,66.00
2023-04-02T05:31:54.354Z,68.00
2023-04-02T05:32:54.584Z,67.00
2023-04-02T05:33:55.015Z,67.00
2023-04-02T05:34:55.155Z,65.00
2023-04-02T05:35:55.547Z,64.00
2023-04-02T05:36:55.777Z,65.00
2023-04-02T05:37:56.035Z,65.00
2023-04-02T05:38:56.233Z,64.00
2023-04-02T05:39:56.583Z,63.00
2023-04-02T05:40:56.861Z,65.00
2023-04-02T05:41:57.079Z,66.00
2023-04-02T05:42:57.504Z,66.00
2023-04-02T05:43:57.513Z,70.00
2023-04-02T05:44:57.845Z,77.00
2023-04-02T05:45:58.131Z,78.00
2023-04-02T05:46:58.888Z,82.00
2023-04-02T05:47:58.824Z,92.00
2023-04-02T05:48:59.027Z,95.00
2023-04-02T05:49:59.366Z,101.00
2023-04-02T05:50:59.696Z,104.00
2023-04-02T05:52:00.020Z,108.00
2023-04-02T05:53:00.340Z,111.00
2023-04-02T05:54:00.714Z,114.00
2023-04-02T05:55:00.948Z,123.00
2023-04-02T05:56:01.371Z,128.00
2023-04-02T05:57:01.574Z,139.00
2023-04-02T05:58:29.444Z,139.00
2023-04-02T05:59:03.195Z,153.00
2023-04-02T06:00:02.421Z,166.00
2023-04-02T06:01:02.714Z,171.00
2023-04-02T06:02:03.128Z,176.00
2023-04-02T06:03:03.484Z,190.00
2023-04-02T06:04:03.771Z,203.00
2023-04-02T06:05:03.945Z,212.00
2023-04-02T06:06:04.315Z,237.00
2023-04-02T06:07:06.484Z,242.00
2023-04-02T06:08:04.957Z,258.00
2023-04-02T06:09:05.307Z,258.00
2023-04-02T06:10:05.555Z,268.00
2023-04-02T06:11:05.786Z,271.00
2023-04-02T06:12:06.521Z,266.00
2023-04-02T06:13:06.472Z,266.00
2023-04-02T06:14:06.680Z,255.00
2023-04-02T06:15:06.901Z,269.00
2023-04-02T06:16:07.263Z,263.00
2023-04-02T06:17:07.529Z,259.00
2023-04-02T06:18:07.721Z,257.00
2023-04-02T06:19:08.034Z,263.00
2023-04-02T06:20:08.377Z,267.00
2023-04-02T06:21:08.588Z,280.00
2023-04-02T06:22:09.021Z,299.00
2023-04-02T06:23:09.210Z,316.00
2023-04-02T06:24:09.585Z,345.00
2023-04-02T06:25:10.257Z,381.00
2023-04-02T06:26:10.026Z,425.00
2023-04-02T06:27:10.301Z,455.00
2023-04-02T06:28:10.629Z,485.00
2023-04-02T06:29:10.955Z,505.00
2023-04-02T06:30:11.331Z,514.00
2023-04-02T06:31:11.603Z,517.00
2023-04-02T06:32:11.877Z,490.00
2023-04-02T06:33:12.214Z,462.00
2023-04-02T06:34:12.564Z,445.00
2023-04-02T06:35:12.892Z,455.00
2023-04-02T06:36:13.195Z,449.00
2023-04-02T06:37:13.351Z,481.00
2023-04-02T06:38:13.693Z,512.00
2023-04-02T06:39:13.997Z,546.00
2023-04-02T06:40:14.427Z,588.00
2023-04-02T06:41:14.623Z,607.00
2023-04-02T06:42:14.981Z,609.00
2023-04-02T06:43:15.232Z,630.00
2023-04-02T06:44:15.412Z,640.00
2023-04-02T06:45:15.717Z,657.00
2023-04-02T06:46:16.131Z,656.00
2023-04-02T06:47:16.357Z,655.00
2023-04-02T06:48:16.688Z,661.00
2023-04-02T06:49:16.910Z,662.00
2023-04-02T06:50:17.138Z,679.00
2023-04-02T06:51:17.306Z,691.00
2023-04-02T06:52:17.669Z,711.00
2023-04-02T06:53:17.889Z,719.00
2023-04-02T06:54:19.134Z,712.00
2023-04-02T06:55:18.527Z,700.00
2023-04-02T06:56:20.209Z,708.00
2023-04-02T06:57:19.146Z,731.00
2023-04-02T06:58:20.210Z,723.00
2023-04-02T06:59:19.693Z,756.00
2023-04-02T07:00:21.845Z,763.00
2023-04-02T07:01:20.190Z,774.00
2023-04-02T07:02:20.392Z,798.00
2023-04-02T07:03:20.588Z,839.00
2023-04-02T07:04:20.976Z,881.00
2023-04-02T07:05:21.165Z,910.00
2023-04-02T07:06:21.470Z,911.00
2023-04-02T07:07:21.803Z,988.00
2023-04-02T07:08:22.022Z,1023.00
2023-04-02T07:09:22.341Z,1031.00
2023-04-02T07:10:22.710Z,1045.00
2023-04-02T07:11:23.020Z,1021.00
2023-04-02T07:12:23.207Z,1003.00
2023-04-02T07:13:23.489Z,999.00
2023-04-02T07:14:23.837Z,1021.00
2023-04-02T07:15:24.171Z,1001.00
2023-04-02T07:16:24.505Z,1039.00
2023-04-02T07:17:24.779Z,1029.00
2023-04-02T07:18:25.018Z,1089.00
2023-04-02T07:19:25.285Z,1075.00
2023-04-02T07:20:25.467Z,1011.00
2023-04-02T07:21:25.859Z,960.00
2023-04-02T07:22:26.058Z,900.00
2023-04-02T07:23:26.374Z,893.00
2023-04-02T07:24:26.757Z,911.00
2023-04-02T07:25:26.931Z,930.00
2023-04-02T07:26:27.269Z,938.00
2023-04-02T07:27:27.476Z,961.00
2023-04-02T07:28:27.803Z,957.00
2023-04-02T07:29:28.183Z,952.00
2023-04-02T07:30:28.368Z,984.00
2023-04-02T07:31:28.811Z,995.00
2023-04-02T07:32:28.989Z,988.00
2023-04-02T07:33:29.320Z,1014.00
2023-04-02T07:34:29.577Z,1027.00
2023-04-02T07:35:29.731Z,1031.00
2023-04-02T07:36:30.075Z,985.00
2023-04-02T07:37:30.734Z,963.00
2023-04-02T07:38:30.766Z,922.00
2023-04-02T07:39:30.958Z,889.00
2023-04-02T07:40:31.302Z,863.00
2023-04-02T07:41:31.771Z,864.00
2023-04-02T07:42:31.959Z,882.00
2023-04-02T07:43:32.194Z,895.00
2023-04-02T07:44:32.522Z,907.00
2023-04-02T07:45:32.825Z,893.00
2023-04-02T07:46:33.051Z,879.00
2023-04-02T07:47:33.249Z,882.00
2023-04-02T07:48:33.612Z,867.00
2023-04-02T07:49:33.765Z,879.00
2023-04-02T07:50:34.099Z,911.00
2023-04-02T07:51:34.443Z,928.00
2023-04-02T07:52:34.800Z,929.00
2023-04-02T07:53:35.018Z,954.00
2023-04-02T07:54:35.341Z,981.00
2023-04-02T07:55:47.178Z,1008.00
2023-04-02T07:56:35.898Z,1026.00
2023-04-02T07:57:36.273Z,1054.00
2023-04-02T07:58:36.456Z,1061.00
2023-04-02T07:59:36.831Z,1081.00
2023-04-02T08:00:37.024Z,1177.00
2023-04-02T08:01:37.418Z,1179.00
2023-04-02T08:02:37.702Z,1197.00
2023-04-02T08:03:37.936Z,1227.00
2023-04-02T08:04:38.195Z,1224.00
2023-04-02T08:05:38.568Z,1203.00
2023-04-02T08:06:38.769Z,1179.00
2023-04-02T08:07:39.008Z,1178.00
2023-04-02T08:08:39.316Z,1180.00
2023-04-02T08:09:39.786Z,1162.00
2023-04-02T08:10:39.952Z,1162.00
2023-04-02T08:11:40.379Z,1145.00
2023-04-02T08:12:40.618Z,1129.00
2023-04-02T08:13:40.890Z,1121.00
2023-04-02T08:14:41.166Z,1108.00
2023-04-02T08:15:41.339Z,1137.00
2023-04-02T08:16:41.684Z,1108.00
2023-04-02T08:17:42.028Z,1089.00
2023-04-02T08:18:42.360Z,1091.00
2023-04-02T08:19:54.305Z,1057.00
2023-04-02T08:20:43.815Z,1091.00
2023-04-02T08:21:43.045Z,1114.00
2023-04-02T08:22:43.363Z,1148.00
2023-04-02T08:23:43.619Z,1203.00
2023-04-02T08:24:43.894Z,1279.00
2023-04-02T08:25:44.162Z,1330.00
2023-04-02T08:26:45.484Z,1399.00
2023-04-02T08:27:44.617Z,1443.00
2023-04-02T08:28:44.993Z,1434.00
2023-04-02T08:29:45.207Z,1456.00
2023-04-02T08:30:45.543Z,1443.00
2023-04-02T08:31:45.909Z,1438.00
2023-04-02T08:32:46.162Z,1465.00
2023-04-02T08:33:46.364Z,1476.00
2023-04-02T08:34:46.779Z,1462.00
2023-04-02T08:35:47.114Z,1419.00
2023-04-02T08:36:47.354Z,1331.00
2023-04-02T08:37:47.537Z,1248.00
2023-04-02T08:38:47.885Z,1182.00
2023-04-02T08:39:48.148Z,1132.00
2023-04-02T08:40:48.408Z,1111.00
2023-04-02T08:41:48.686Z,1079.00
2023-04-02T08:42:48.880Z,1081.00
2023-04-02T08:43:49.120Z,1084.00
2023-04-02T08:44:49.329Z,1066.00
2023-04-02T08:45:49.708Z,1029.00
2023-04-02T08:46:49.944Z,1031.00
2023-04-02T08:47:50.194Z,1020.00
2023-04-02T08:48:50.419Z,1020.00
2023-04-02T08:49:50.721Z,1013.00
2023-04-02T08:50:50.944Z,1009.00
2023-04-02T08:51:51.156Z,1000.00
2023-04-02T08:52:51.458Z,990.00
2023-04-02T08:53:51.761Z,980.00
2023-04-02T08:54:52.104Z,987.00
2023-04-02T08:55:52.501Z,990.00
2023-04-02T08:56:52.630Z,1036.00
2023-04-02T08:57:52.894Z,1084.00
2023-04-02T08:58:53.115Z,1107.00
2023-04-02T08:59:53.373Z,1129.00
2023-04-02T09:00:53.632Z,1136.00
2023-04-02T09:01:53.974Z,1147.00
2023-04-02T09:02:54.155Z,1151.00
2023-04-02T09:03:54.571Z,1162.00
2023-04-02T09:04:54.791Z,1168.00
2023-04-02T09:05:55.061Z,1163.00
2023-04-02T09:06:55.315Z,1153.00
2023-04-02T09:07:55.550Z,1144.00
2023-04-02T09:08:55.802Z,1132.00
2023-04-02T09:09:56.150Z,1177.00
2023-04-02T09:10:56.433Z,1251.00
2023-04-02T09:11:56.629Z,1306.00
2023-04-02T09:12:56.994Z,1374.00
2023-04-02T09:13:57.246Z,1397.00
2023-04-02T09:14:57.513Z,1421.00
2023-04-02T09:15:57.761Z,1402.00
2023-04-02T09:16:57.956Z,1396.00
2023-04-02T09:17:59.684Z,1419.00
2023-04-02T09:18:58.529Z,1457.00
2023-04-02T09:19:58.705Z,1478.00
2023-04-02T09:20:59.039Z,1520.00
2023-04-02T09:21:59.350Z,1512.00
2023-04-02T09:22:59.686Z,1515.00
2023-04-02T09:24:00.108Z,1530.00
2023-04-02T09:25:00.289Z,1520.00
2023-04-02T09:26:04.702Z,1514.00
2023-04-02T09:27:01.004Z,1521.00
2023-04-02T09:28:01.189Z,1493.00
2023-04-02T09:29:01.408Z,1462.00
2023-04-02T09:30:01.938Z,1459.00
2023-04-02T09:31:01.973Z,1444.00
2023-04-02T09:32:02.455Z,1419.00
2023-04-02T09:33:02.593Z,1422.00
2023-04-02T09:34:02.812Z,1455.00
2023-04-02T09:35:07.458Z,1522.00
2023-04-02T09:36:04.514Z,1676.00
2023-04-02T09:37:03.734Z,1881.00
2023-04-02T09:38:03.947Z,2020.00
2023-04-02T09:39:04.316Z,2201.00
2023-04-02T09:40:04.597Z,2468.00
2023-04-02T09:41:04.786Z,2833.00
2023-04-02T09:42:05.943Z,3375.00
2023-04-02T09:43:05.374Z,4053.00
2023-04-02T09:44:05.674Z,4219.00
2023-04-02T09:45:06.084Z,6828.00
2023-04-02T09:46:06.241Z,6557.00
2023-04-02T09:47:06.558Z,3563.00
2023-04-02T09:48:07.007Z,3009.00
2023-04-02T09:49:07.180Z,2766.00
2023-04-02T09:50:07.497Z,2466.00
2023-04-02T09:51:07.649Z,2299.00
2023-04-02T09:52:08.078Z,2234.00
2023-04-02T09:53:08.274Z,2209.00
2023-04-02T09:54:08.662Z,2239.00
2023-04-02T09:55:08.864Z,2236.00
2023-04-02T09:56:09.169Z,2284.00
2023-04-02T09:57:09.554Z,2398.00
2023-04-02T09:58:09.750Z,2350.00
2023-04-02T09:59:10.166Z,2387.00
2023-04-02T10:00:18.382Z,2416.00
2023-04-02T10:01:11.652Z,2324.00
2023-04-02T10:02:10.879Z,2205.00
2023-04-02T10:03:11.214Z,2154.00
2023-04-02T10:04:11.602Z,2135.00
2023-04-02T10:05:11.801Z,2135.00
2023-04-02T10:06:12.093Z,2149.00
2023-04-02T10:07:12.447Z,2214.00
2023-04-02T10:08:12.927Z,2213.00
2023-04-02T10:09:12.953Z,2362.00
2023-04-02T10:10:13.282Z,2478.00
2023-04-02T10:11:13.440Z,2445.00
2023-04-02T10:12:13.805Z,2391.00
2023-04-02T10:13:14.218Z,2150.00
2023-04-02T10:14:14.307Z,1928.00
2023-04-02T10:15:14.500Z,1715.00
2023-04-02T10:16:14.876Z,1479.00
2023-04-02T10:17:15.207Z,1180.00
2023-04-02T10:18:15.431Z,962.00
2023-04-02T10:19:15.696Z,770.00
2023-04-02T10:20:15.998Z,667.00
2023-04-02T10:21:16.389Z,621.00
2023-04-02T10:22:16.632Z,635.00
2023-04-02T10:23:16.839Z,610.00
2023-04-02T10:24:17.158Z,609.00
2023-04-02T10:25:17.338Z,624.00
2023-04-02T10:26:17.561Z,598.00
2023-04-02T10:27:18.078Z,615.00
2023-04-02T10:28:18.291Z,626.00
2023-04-02T10:29:18.525Z,636.00
2023-04-02T10:30:18.797Z,656.00
2023-04-02T10:31:19.029Z,678.00
2023-04-02T10:32:19.358Z,677.00
2023-04-02T10:33:19.708Z,702.00
2023-04-02T10:34:19.957Z,660.00
2023-04-02T10:35:20.250Z,693.00
2023-04-02T10:36:20.488Z,786.00
2023-04-02T10:37:20.775Z,883.00
2023-04-02T10:38:21.086Z,962.00
2023-04-02T10:39:21.435Z,980.00
2023-04-02T10:40:21.816Z,959.00
2023-04-02T10:41:22.067Z,791.00
2023-04-02T10:42:22.338Z,662.00
2023-04-02T10:43:22.598Z,788.00
2023-04-02T10:44:22.849Z,818.00
2023-04-02T10:45:23.105Z,801.00
2023-04-02T10:46:25.302Z,796.00
2023-04-02T10:47:24.860Z,791.00
2023-04-02T10:48:23.971Z,839.00
2023-04-02T10:49:24.199Z,863.00
2023-04-02T10:50:24.538Z,825.00
2023-04-02T10:51:24.837Z,916.00
2023-04-02T10:52:25.177Z,1094.00
2023-04-02T10:53:25.360Z,1133.00
2023-04-02T10:54:25.721Z,1230.00
2023-04-02T10:55:25.952Z,1397.00
2023-04-02T10:56:26.192Z,1487.00
2023-04-02T10:57:27.374Z,1542.00
2023-04-02T10:58:26.668Z,1455.00
2023-04-02T10:59:27.023Z,1557.00
2023-04-02T11:00:27.311Z,1428.00
2023-04-02T11:01:27.716Z,1393.00
2023-04-02T11:02:27.950Z,1333.00
2023-04-02T11:03:28.360Z,1522.00
2023-04-02T11:04:28.502Z,1533.00
2023-04-02T11:05:28.838Z,1488.00
2023-04-02T11:06:29.554Z,1420.00
2023-04-02T11:07:29.473Z,1165.00
2023-04-02T11:08:29.722Z,1162.00
2023-04-02T11:09:30.086Z,1037.00
2023-04-02T11:10:30.281Z,979.00
2023-04-02T11:11:30.624Z,885.00
2023-04-02T11:12:31.793Z,861.00
2023-04-02T11:13:31.179Z,886.00
2023-04-02T11:14:31.528Z,848.00
2023-04-02T11:15:31.654Z,863.00
2023-04-02T11:16:32.025Z,916.00
2023-04-02T11:17:32.290Z,852.00
2023-04-02T11:18:32.494Z,861.00
2023-04-02T11:19:33.380Z,911.00
2023-04-02T11:20:33.023Z,879.00
2023-04-02T11:21:33.334Z,864.00
2023-04-02T11:22:33.600Z,915.00
2023-04-02T11:23:33.886Z,878.00
2023-04-02T11:24:34.349Z,818.00
2023-04-02T11:25:34.763Z,884.00
2023-04-02T11:26:34.713Z,877.00
2023-04-02T11:27:35.031Z,850.00
2023-04-02T11:28:35.216Z,866.00
2023-04-02T11:29:35.536Z,790.00
2023-04-02T11:30:35.762Z,824.00
2023-04-02T11:31:36.114Z,894.00
2023-04-02T11:32:36.495Z,866.00
2023-04-02T11:33:39.191Z,743.00
2023-04-02T11:34:36.910Z,681.00
2023-04-02T11:35:37.513Z,731.00
2023-04-02T11:36:37.369Z,773.00
2023-04-02T11:37:37.745Z,786.00
2023-04-02T11:38:37.949Z,759.00
2023-04-02T11:39:38.354Z,689.00
2023-04-02T11:40:38.593Z,703.00
2023-04-02T11:41:38.783Z,801.00
2023-04-02T11:42:39.137Z,837.00
2023-04-02T11:43:39.464Z,921.00
2023-04-02T11:44:39.649Z,990.00
2023-04-02T11:45:51.883Z,983.00
2023-04-02T11:46:41.285Z,878.00
2023-04-02T11:47:40.583Z,852.00
2023-04-02T11:48:40.810Z,851.00
2023-04-02T11:49:41.086Z,996.00
2023-04-02T11:50:41.310Z,953.00
2023-04-02T11:51:41.559Z,871.00
2023-04-02T11:52:41.864Z,873.00
2023-04-02T11:53:42.137Z,778.00
2023-04-02T11:54:42.294Z,830.00
2023-04-02T11:55:42.746Z,962.00
2023-04-02T11:56:43.015Z,912.00
2023-04-02T11:57:43.164Z,865.00
2023-04-02T11:58:43.496Z,852.00
2023-04-02T11:59:43.810Z,874.00
2023-04-02T12:00:44.127Z,795.00
2023-04-02T12:01:44.616Z,955.00
2023-04-02T12:02:44.912Z,960.00
2023-04-02T12:03:45.143Z,862.00
2023-04-02T12:04:45.437Z,907.00
2023-04-02T12:05:45.666Z,964.00
2023-04-02T12:06:45.867Z,1145.00
2023-04-02T12:07:46.225Z,1153.00
2023-04-02T12:08:56.972Z,1110.00
2023-04-02T12:09:47.810Z,1051.00
2023-04-02T12:10:47.062Z,1102.00
2023-04-02T12:11:47.321Z,1166.00
2023-04-02T12:12:47.521Z,1292.00
2023-04-02T12:13:47.841Z,1241.00
2023-04-02T12:14:48.156Z,1122.00
2023-04-02T12:15:48.404Z,1341.00
2023-04-02T12:16:48.746Z,1527.00
2023-04-02T12:17:48.866Z,1398.00
2023-04-02T12:18:49.099Z,1403.00
2023-04-02T12:19:49.371Z,1563.00
2023-04-02T12:20:49.612Z,1681.00
2023-04-02T12:21:49.878Z,1500.00
2023-04-02T12:22:50.163Z,1792.00
2023-04-02T12:23:50.504Z,1424.00
2023-04-02T12:24:50.805Z,1522.00
2023-04-02T12:25:51.154Z,1638.00
2023-04-02T12:26:51.308Z,1586.00
2023-04-02T12:27:51.652Z,1649.00
2023-04-02T12:28:51.976Z,1304.00
2023-04-02T12:29:52.265Z,1262.00
2023-04-02T12:30:52.439Z,1409.00
2023-04-02T12:31:52.928Z,1417.00
2023-04-02T12:32:53.104Z,1469.00
2023-04-02T12:33:53.326Z,1489.00
2023-04-02T12:34:53.635Z,1407.00
2023-04-02T12:35:54.016Z,1377.00
2023-04-02T12:36:54.186Z,1346.00
2023-04-02T12:37:54.596Z,1311.00
2023-04-02T12:38:54.848Z,1332.00
2023-04-02T12:39:55.381Z,1496.00
2023-04-02T12:40:55.548Z,1579.00
2023-04-02T12:41:55.744Z,1616.00
2023-04-02T12:42:55.960Z,1482.00
2023-04-02T12:43:56.279Z,1261.00
2023-04-02T12:44:56.489Z,1153.00
2023-04-02T12:45:56.822Z,1265.00